createdAt,value
2018-03-01T00:00:05.427Z,-9.70
2018-03-01T00:02:33.117Z,-9.80
2018-03-01T00:05:01.319Z,-9.80
2018-03-01T00:07:28.959Z,-9.80
2018-03-01T00:09:56.589Z,-9.70
2018-03-01T00:12:24.184Z,-9.80
2018-03-01T00:14:51.824Z,-9.80
2018-03-01T00:17:19.463Z,-9.80
2018-03-01T00:19:47.824Z,-9.80
2018-03-01T00:22:27.382Z,-9.90
2018-03-01T00:24:55.022Z,-9.90
2018-03-01T00:27:22.648Z,-9.90
2018-03-01T00:29:50.270Z,-9.90
2018-03-01T00:32:18.682Z,-9.90
2018-03-01T00:34:46.340Z,-9.90
2018-03-01T00:37:13.974Z,-10.00
2018-03-01T00:39:41.633Z,-10.10
2018-03-01T00:42:09.234Z,-10.10
2018-03-01T00:44:36.857Z,-10.00
2018-03-01T00:47:04.537Z,-10.00
2018-03-01T00:49:32.159Z,-10.00
2018-03-01T00:51:59.793Z,-10.10
2018-03-01T00:54:27.458Z,-10.20
2018-03-01T00:56:55.852Z,-10.20
2018-03-01T00:59:24.259Z,-10.20
2018-03-01T01:01:51.890Z,-10.20
2018-03-01T01:04:20.849Z,-10.20
2018-03-01T01:06:48.454Z,-10.20
2018-03-01T01:09:16.464Z,-10.20
2018-03-01T01:11:44.156Z,-10.30
2018-03-01T01:14:11.809Z,-10.30
2018-03-01T01:16:39.447Z,-10.20
2018-03-01T01:19:07.098Z,-10.30
2018-03-01T01:21:35.506Z,-10.30
2018-03-01T01:24:03.150Z,-10.30
2018-03-01T01:26:31.553Z,-10.40
2018-03-01T01:28:59.195Z,-10.40
2018-03-01T01:31:27.898Z,-10.40
2018-03-01T01:33:55.546Z,-10.40
2018-03-01T01:36:23.925Z,-10.50
2018-03-01T01:38:52.390Z,-10.50
2018-03-01T01:41:20.036Z,-10.50
2018-03-01T01:43:47.692Z,-10.50
2018-03-01T01:46:15.291Z,-10.50
2018-03-01T01:48:43.740Z,-10.50
2018-03-01T01:51:11.359Z,-10.50
2018-03-01T01:53:39.799Z,-10.60
2018-03-01T01:56:07.673Z,-10.60
2018-03-01T01:58:35.330Z,-10.60
2018-03-01T02:01:03.002Z,-10.60
2018-03-01T02:03:30.966Z,-10.60
2018-03-01T02:05:58.630Z,-10.60
2018-03-01T02:08:26.281Z,-10.70
2018-03-01T02:10:53.953Z,-10.80
2018-03-01T02:13:21.553Z,-10.80
2018-03-01T02:15:49.294Z,-10.70
2018-03-01T02:18:16.910Z,-10.80
2018-03-01T02:20:44.845Z,-10.80
2018-03-01T02:23:12.478Z,-10.80
2018-03-01T02:25:40.886Z,-10.70
2018-03-01T02:28:08.491Z,-10.80
2018-03-01T02:30:36.810Z,-10.80
2018-03-01T02:33:05.234Z,-10.90
2018-03-01T02:35:32.878Z,-10.90
2018-03-01T02:38:00.493Z,-10.90
2018-03-01T02:40:28.137Z,-10.90
2018-03-01T02:42:55.787Z,-10.90
2018-03-01T02:45:23.413Z,-10.90
2018-03-01T02:47:52.641Z,-11.00
2018-03-01T02:50:20.268Z,-11.00
2018-03-01T02:52:48.195Z,-10.90
2018-03-01T02:55:15.851Z,-11.00
2018-03-01T02:57:43.492Z,-11.00
2018-03-01T03:00:11.901Z,-11.00
2018-03-01T03:02:39.528Z,-11.00
2018-03-01T03:05:07.126Z,-11.00
2018-03-01T03:07:34.777Z,-11.00
2018-03-01T03:10:03.153Z,-11.10
2018-03-01T03:12:30.814Z,-11.10
2018-03-01T03:14:58.756Z,-11.10
2018-03-01T03:17:26.344Z,-11.10
2018-03-01T03:19:54.008Z,-11.10
2018-03-01T03:22:21.670Z,-11.20
2018-03-01T03:24:49.320Z,-11.20
2018-03-01T03:27:16.992Z,-11.20
2018-03-01T03:29:44.626Z,-11.20
2018-03-01T03:32:12.275Z,-11.20
2018-03-01T03:34:41.215Z,-11.20
2018-03-01T03:37:08.891Z,-11.30
2018-03-01T03:39:36.539Z,-11.20
2018-03-01T03:42:04.171Z,-11.30
2018-03-01T03:44:32.558Z,-11.30
2018-03-01T03:47:00.240Z,-11.30
2018-03-01T03:49:27.895Z,-11.30
2018-03-01T03:51:56.268Z,-11.30
2018-03-01T03:54:23.930Z,-11.40
2018-03-01T03:56:52.333Z,-11.40
2018-03-01T03:59:19.950Z,-11.40
2018-03-01T04:01:47.630Z,-11.40
2018-03-01T04:04:16.031Z,-11.40
2018-03-01T04:06:44.693Z,-11.40
2018-03-01T04:09:12.340Z,-11.40
2018-03-01T04:11:40.006Z,-11.40
2018-03-01T04:14:07.893Z,-11.40
2018-03-01T04:16:36.278Z,-11.40
2018-03-01T04:19:04.888Z,-11.40
2018-03-01T04:21:33.312Z,-11.50
2018-03-01T04:24:00.936Z,-11.50
2018-03-01T04:26:29.354Z,-11.50
2018-03-01T04:28:57.024Z,-11.50
2018-03-01T04:31:25.422Z,-11.50
2018-03-01T04:33:53.863Z,-11.50
2018-03-01T04:36:22.355Z,-11.60
2018-03-01T04:38:50.731Z,-11.60
2018-03-01T04:41:18.395Z,-11.60
2018-03-01T04:43:46.007Z,-11.60
2018-03-01T04:46:13.634Z,-11.70
2018-03-01T04:48:42.408Z,-11.70
2018-03-01T04:51:10.039Z,-11.70
2018-03-01T04:53:37.736Z,-11.70
2018-03-01T04:56:05.375Z,-11.70
2018-03-01T04:58:33.337Z,-11.80
2018-03-01T05:01:01.305Z,-11.80
2018-03-01T05:03:28.909Z,-11.80
2018-03-01T05:05:56.581Z,-11.90
2018-03-01T05:08:24.222Z,-11.90
2018-03-01T05:10:51.876Z,-11.90
2018-03-01T05:13:19.494Z,-12.00
2018-03-01T05:15:47.141Z,-12.00
2018-03-01T05:18:14.798Z,-12.00
2018-03-01T05:20:42.431Z,-12.00
2018-03-01T05:23:10.064Z,-12.00
2018-03-01T05:25:38.469Z,-12.10
2018-03-01T05:28:06.122Z,-12.10
2018-03-01T05:30:34.521Z,-12.20
2018-03-01T05:33:02.174Z,-12.20
2018-03-01T05:35:30.562Z,-12.20
2018-03-01T05:37:59.361Z,-12.10
2018-03-01T05:40:27.017Z,-12.10
2018-03-01T05:42:56.287Z,-12.20
2018-03-01T05:45:23.955Z,-12.10
2018-03-01T05:47:51.558Z,-12.20
2018-03-01T05:50:19.980Z,-12.20
2018-03-01T05:52:47.625Z,-12.20
2018-03-01T05:55:15.288Z,-12.20
2018-03-01T05:57:42.971Z,-12.30
2018-03-01T06:00:11.696Z,-12.30
2018-03-01T06:02:39.371Z,-12.30
2018-03-01T06:05:07.164Z,-12.30
2018-03-01T06:07:35.588Z,-12.30
2018-03-01T06:10:03.908Z,-12.30
2018-03-01T06:12:31.605Z,-12.30
2018-03-01T06:14:59.988Z,-12.30
2018-03-01T06:17:28.459Z,-12.30
2018-03-01T06:19:56.080Z,-12.30
2018-03-01T06:22:23.785Z,-12.30
2018-03-01T06:24:51.450Z,-12.30
2018-03-01T06:27:19.099Z,-12.20
2018-03-01T06:29:46.760Z,-12.20
2018-03-01T06:32:14.437Z,-12.20
2018-03-01T06:34:42.091Z,-12.20
2018-03-01T06:37:10.056Z,-12.20
2018-03-01T06:39:37.731Z,-12.10
2018-03-01T06:42:05.409Z,-12.10
2018-03-01T06:44:33.148Z,-12.10
2018-03-01T06:47:00.840Z,-12.10
2018-03-01T06:49:28.499Z,-12.10
2018-03-01T06:51:57.180Z,-12.10
2018-03-01T06:54:24.863Z,-12.00
2018-03-01T06:56:53.444Z,-12.00
2018-03-01T06:59:21.106Z,-11.90
2018-03-01T07:01:48.887Z,-11.80
2018-03-01T07:04:16.545Z,-11.80
2018-03-01T07:06:44.188Z,-11.70
2018-03-01T07:09:11.842Z,-11.60
2018-03-01T07:11:40.496Z,-11.60
2018-03-01T07:14:08.532Z,-11.60
2018-03-01T07:16:36.186Z,-11.40
2018-03-01T07:19:03.830Z,-11.30
2018-03-01T07:21:32.280Z,-11.30
2018-03-01T07:24:00.218Z,-11.30
2018-03-01T07:26:27.910Z,-11.20
2018-03-01T07:28:55.786Z,-11.20
2018-03-01T07:31:23.770Z,-11.10
2018-03-01T07:33:51.402Z,-11.10
2018-03-01T07:36:19.013Z,-10.90
2018-03-01T07:38:47.474Z,-11.00
2018-03-01T07:41:16.307Z,-11.00
2018-03-01T07:43:44.588Z,-10.90
2018-03-01T07:46:12.216Z,-10.80
2018-03-01T07:48:39.826Z,-10.70
2018-03-01T07:51:08.222Z,-10.60
2018-03-01T07:53:35.869Z,-10.60
2018-03-01T07:56:03.505Z,-10.50
2018-03-01T07:58:31.164Z,-10.30
2018-03-01T08:00:58.784Z,-10.40
2018-03-01T08:03:27.209Z,-10.30
2018-03-01T08:05:54.824Z,-10.30
2018-03-01T08:08:22.455Z,-10.30
2018-03-01T08:10:50.071Z,-10.10
2018-03-01T08:13:18.463Z,-9.70
2018-03-01T08:15:46.851Z,-9.70
2018-03-01T08:18:14.853Z,-9.70
2018-03-01T08:20:42.832Z,-9.60
2018-03-01T08:23:10.484Z,-9.60
2018-03-01T08:25:39.051Z,-9.40
2018-03-01T08:28:06.749Z,-9.50
2018-03-01T08:30:34.398Z,-9.40
2018-03-01T08:33:02.623Z,-9.20
2018-03-01T08:35:30.595Z,-9.10
2018-03-01T08:37:58.245Z,-9.20
2018-03-01T08:40:25.961Z,-9.20
2018-03-01T08:42:54.427Z,-9.10
2018-03-01T08:45:22.097Z,-9.10
2018-03-01T08:47:49.727Z,-8.80
2018-03-01T08:50:17.366Z,-8.50
2018-03-01T08:52:45.012Z,-8.50
2018-03-01T08:55:14.038Z,-8.30
2018-03-01T08:57:42.079Z,-8.40
2018-03-01T09:00:10.455Z,-8.20
2018-03-01T09:02:38.867Z,-8.00
2018-03-01T09:05:06.544Z,-8.00
2018-03-01T09:07:34.196Z,-8.20
2018-03-01T09:10:02.638Z,-8.40
2018-03-01T09:12:30.310Z,-8.40
2018-03-01T09:14:57.972Z,-8.00
2018-03-01T09:17:25.688Z,-8.10
2018-03-01T09:19:53.287Z,-7.80
2018-03-01T09:22:20.932Z,-7.80
2018-03-01T09:24:48.633Z,-7.80
2018-03-01T09:27:16.565Z,-7.70
2018-03-01T09:29:44.222Z,-7.40
2018-03-01T09:32:11.891Z,-7.30
2018-03-01T09:34:39.525Z,-7.30
2018-03-01T09:37:07.984Z,-7.00
2018-03-01T09:39:35.639Z,-7.00
2018-03-01T09:42:03.296Z,-7.00
2018-03-01T09:44:31.618Z,-6.80
2018-03-01T09:46:59.264Z,-6.60
2018-03-01T09:49:26.933Z,-6.60
2018-03-01T09:51:55.209Z,-6.80
2018-03-01T09:54:22.836Z,-6.40
2018-03-01T09:56:51.739Z,-6.10
2018-03-01T09:59:19.751Z,-6.10
2018-03-01T10:01:47.388Z,-5.80
2018-03-01T10:04:15.072Z,-6.00
2018-03-01T10:06:42.699Z,-5.70
2018-03-01T10:09:11.227Z,-6.00
2018-03-01T10:11:38.870Z,-6.00
2018-03-01T10:14:06.958Z,-5.70
2018-03-01T10:16:34.596Z,-5.20
2018-03-01T10:19:03.037Z,-5.40
2018-03-01T10:21:30.704Z,-5.50
2018-03-01T10:23:58.369Z,-5.60
2018-03-01T10:26:26.559Z,-5.90
2018-03-01T10:28:54.268Z,-5.10
2018-03-01T10:31:21.910Z,-5.10
2018-03-01T10:33:49.593Z,-5.40
2018-03-01T10:36:18.010Z,-4.50
2018-03-01T10:38:45.610Z,-4.50
2018-03-01T10:41:13.250Z,-4.40
2018-03-01T10:43:41.679Z,-4.30
2018-03-01T10:46:09.290Z,-4.40
2018-03-01T10:48:37.855Z,-4.10
2018-03-01T10:51:06.246Z,-4.40
2018-03-01T10:53:33.875Z,-4.40
2018-03-01T10:56:02.406Z,-3.90
2018-03-01T10:58:30.587Z,-3.70
2018-03-01T11:00:59.173Z,-3.60
2018-03-01T11:03:26.768Z,-3.20
2018-03-01T11:05:54.472Z,-3.40
2018-03-01T11:08:22.102Z,-3.00
2018-03-01T11:10:49.720Z,-3.50
2018-03-01T11:13:17.368Z,-3.10
2018-03-01T11:15:45.753Z,-3.30
2018-03-01T11:18:13.394Z,-3.30
2018-03-01T11:20:41.802Z,-3.90
2018-03-01T11:23:09.506Z,-3.90
2018-03-01T11:25:37.123Z,-3.20
2018-03-01T11:28:04.755Z,-3.50
2018-03-01T11:30:32.364Z,-3.00
2018-03-01T11:33:00.023Z,-2.90
2018-03-01T11:35:27.693Z,-2.80
2018-03-01T11:37:55.299Z,-2.90
2018-03-01T11:40:22.945Z,-3.30
2018-03-01T11:42:51.367Z,-2.90
2018-03-01T11:45:19.540Z,-3.00
2018-03-01T11:47:47.204Z,-2.70
2018-03-01T11:50:14.866Z,-2.20
2018-03-01T11:52:42.500Z,-2.30
2018-03-01T11:55:10.914Z,-2.00
2018-03-01T11:57:38.537Z,-2.00
2018-03-01T12:00:06.202Z,-2.00
2018-03-01T12:02:33.862Z,-2.40
2018-03-01T12:05:01.568Z,-2.20
2018-03-01T12:07:29.191Z,-2.20
2018-03-01T12:09:56.902Z,-2.30
2018-03-01T12:12:25.328Z,-2.60
2018-03-01T12:14:52.948Z,-2.60
2018-03-01T12:17:21.330Z,-2.30
2018-03-01T12:19:49.727Z,-2.10
2018-03-01T12:22:18.129Z,-1.80
2018-03-01T12:24:45.809Z,-1.80
2018-03-01T12:27:13.450Z,-2.30
2018-03-01T12:29:41.072Z,-2.30
2018-03-01T12:32:08.706Z,-2.40
2018-03-01T12:34:36.376Z,-2.70
2018-03-01T12:37:03.972Z,-2.60
2018-03-01T12:39:31.611Z,-2.80
2018-03-01T12:41:59.288Z,-3.00
2018-03-01T12:44:27.053Z,-3.10
2018-03-01T12:46:54.743Z,-3.80
2018-03-01T12:49:22.383Z,-3.60
2018-03-01T12:51:50.681Z,-4.00
2018-03-01T12:54:18.375Z,-4.10
2018-03-01T12:56:46.668Z,-4.30
2018-03-01T12:59:14.381Z,-4.20
2018-03-01T13:01:42.084Z,-4.10
2018-03-01T13:04:10.550Z,-4.40
2018-03-01T13:06:40.211Z,-4.50
2018-03-01T13:09:08.646Z,-4.70
2018-03-01T13:11:36.301Z,-4.70
2018-03-01T13:14:03.945Z,-4.50
2018-03-01T13:16:31.599Z,-4.70
2018-03-01T13:18:59.375Z,-4.70
2018-03-01T13:21:27.025Z,-4.90
2018-03-01T13:23:54.682Z,-4.70
2018-03-01T13:26:23.104Z,-5.10
2018-03-01T13:28:50.720Z,-5.10
2018-03-01T13:31:20.182Z,-5.00
2018-03-01T13:33:52.506Z,-5.20
2018-03-01T13:36:20.155Z,-5.20
2018-03-01T13:38:48.573Z,-5.10
2018-03-01T13:41:17.519Z,-4.80
2018-03-01T13:43:45.177Z,-4.90
2018-03-01T13:46:12.805Z,-4.80
2018-03-01T13:48:41.437Z,-5.00
2018-03-01T13:51:09.377Z,-4.90
2018-03-01T13:53:37.038Z,-5.00
2018-03-01T13:56:04.737Z,-5.30
2018-03-01T13:58:32.349Z,-5.40
2018-03-01T14:01:00.719Z,-5.10
2018-03-01T14:03:28.635Z,-5.10
2018-03-01T14:06:16.695Z,-5.30
2018-03-01T14:08:44.342Z,-5.30
2018-03-01T14:11:11.954Z,-5.40
2018-03-01T14:13:42.297Z,-5.30
2018-03-01T14:16:09.917Z,-5.50
2018-03-01T14:21:52.387Z,-5.60
2018-03-01T14:24:21.923Z,-5.50
2018-03-01T14:26:52.359Z,-5.60
2018-03-01T14:29:24.592Z,-5.50
2018-03-01T14:31:53.021Z,-5.60
2018-03-01T14:34:21.604Z,-5.70
2018-03-01T14:36:49.313Z,-5.70
2018-03-01T14:39:17.830Z,-5.70
2018-03-01T14:41:45.823Z,-5.80
2018-03-01T14:44:13.433Z,-5.70
2018-03-01T14:46:41.842Z,-5.60
2018-03-01T14:49:09.467Z,-5.60
2018-03-01T14:51:37.091Z,-5.70
2018-03-01T14:54:04.727Z,-5.60
2018-03-01T14:56:33.089Z,-5.70
2018-03-01T14:59:01.478Z,-5.80
2018-03-01T15:01:29.917Z,-5.80
2018-03-01T15:03:57.555Z,-5.80
2018-03-01T15:06:25.218Z,-5.80
2018-03-01T15:08:52.868Z,-5.80
2018-03-01T15:11:21.249Z,-5.90
2018-03-01T15:13:49.740Z,-5.90
2018-03-01T15:16:17.427Z,-5.90
2018-03-01T15:18:45.124Z,-5.90
2018-03-01T15:21:14.573Z,-5.90
2018-03-01T15:23:43.542Z,-6.10
2018-03-01T15:26:11.191Z,-6.10
2018-03-01T15:28:38.854Z,-6.00
2018-03-01T15:31:07.093Z,-6.00
2018-03-01T15:33:35.539Z,-6.20
2018-03-01T15:36:03.181Z,-6.20
2018-03-01T15:38:31.239Z,-6.20
2018-03-01T15:40:59.002Z,-6.20
2018-03-01T15:43:26.660Z,-6.20
2018-03-01T15:45:54.301Z,-6.20
2018-03-01T15:48:22.090Z,-6.10
2018-03-01T15:50:50.488Z,-6.30
2018-03-01T15:53:18.120Z,-6.30
2018-03-01T15:55:46.503Z,-6.40
2018-03-01T15:58:14.169Z,-6.40
2018-03-01T16:00:41.825Z,-6.40
2018-03-01T16:03:09.873Z,-6.40
2018-03-01T16:05:37.511Z,-6.50
2018-03-01T16:08:05.185Z,-6.50
2018-03-01T16:10:32.782Z,-6.60
2018-03-01T16:13:00.441Z,-6.60
2018-03-01T16:15:28.298Z,-6.60
2018-03-01T16:17:55.948Z,-6.70
2018-03-01T16:20:23.627Z,-6.70
2018-03-01T16:22:51.272Z,-6.70
2018-03-01T16:25:19.677Z,-6.80
2018-03-01T16:27:47.365Z,-6.80
2018-03-01T16:30:15.339Z,-6.90
2018-03-01T16:32:43.068Z,-6.90
2018-03-01T16:35:11.491Z,-7.00
2018-03-01T16:37:39.116Z,-7.00
2018-03-01T16:40:07.552Z,-7.00
2018-03-01T16:42:35.182Z,-7.10
2018-03-01T16:45:03.868Z,-7.10
2018-03-01T16:47:32.263Z,-7.20
2018-03-01T16:50:00.255Z,-7.20
2018-03-01T16:52:27.897Z,-7.20
2018-03-01T16:54:55.564Z,-7.20
2018-03-01T16:57:23.209Z,-7.30
2018-03-01T16:59:51.625Z,-7.40
2018-03-01T17:02:19.508Z,-7.40
2018-03-01T17:04:47.154Z,-7.40
2018-03-01T17:07:15.242Z,-7.40
2018-03-01T17:09:42.909Z,-7.50
2018-03-01T17:12:12.279Z,-7.50
2018-03-01T17:14:39.997Z,-7.50
2018-03-01T17:17:07.672Z,-7.60
2018-03-01T17:19:35.300Z,-7.60
2018-03-01T17:22:04.559Z,-7.60
2018-03-01T17:24:32.236Z,-7.70
2018-03-01T17:26:59.884Z,-7.70
2018-03-01T17:29:28.173Z,-7.70
2018-03-01T17:31:55.853Z,-7.70
2018-03-01T17:34:23.492Z,-7.80
2018-03-01T17:36:51.181Z,-7.80
2018-03-01T17:39:19.114Z,-7.80
2018-03-01T17:41:47.532Z,-7.90
2018-03-01T17:44:15.182Z,-7.90
2018-03-01T17:46:42.875Z,-7.90
2018-03-01T17:49:10.491Z,-8.00
2018-03-01T17:51:38.179Z,-8.00
2018-03-01T17:54:05.825Z,-8.00
2018-03-01T17:56:33.464Z,-8.00
2018-03-01T17:59:01.892Z,-8.10
2018-03-01T18:01:29.541Z,-8.10
2018-03-01T18:03:57.893Z,-8.20
2018-03-01T18:06:25.516Z,-8.20
2018-03-01T18:08:53.235Z,-8.20
2018-03-01T18:11:20.903Z,-8.20
2018-03-01T18:13:50.181Z,-8.30
2018-03-01T18:16:18.605Z,-8.40
2018-03-01T18:18:47.002Z,-8.40
2018-03-01T18:21:14.617Z,-8.40
2018-03-01T18:23:42.275Z,-8.40
2018-03-01T18:26:09.971Z,-8.40
2018-03-01T18:28:38.391Z,-8.50
2018-03-01T18:31:06.019Z,-8.50
2018-03-01T18:33:33.662Z,-8.50
2018-03-01T18:36:01.302Z,-8.50
2018-03-01T18:38:28.948Z,-8.60
2018-03-01T18:40:57.300Z,-8.60
2018-03-01T18:43:25.705Z,-8.60
2018-03-01T18:45:53.364Z,-8.70
2018-03-01T18:48:21.773Z,-8.70
2018-03-01T18:50:49.716Z,-8.70
2018-03-01T18:53:17.355Z,-8.70
2018-03-01T18:55:44.994Z,-8.70
2018-03-01T18:58:12.615Z,-8.70
2018-03-01T19:00:41.022Z,-8.70
2018-03-01T19:03:08.666Z,-8.70
2018-03-01T19:05:37.059Z,-8.80
2018-03-01T19:08:05.453Z,-8.80
2018-03-01T19:10:33.098Z,-8.80
2018-03-01T19:13:01.510Z,-8.90
2018-03-01T19:15:29.176Z,-8.90
2018-03-01T19:17:56.879Z,-8.90
2018-03-01T19:20:24.512Z,-8.90
2018-03-01T19:22:52.195Z,-9.00
2018-03-01T19:25:19.831Z,-9.00
2018-03-01T19:27:47.524Z,-9.00
2018-03-01T19:30:15.243Z,-9.00
2018-03-01T19:32:43.902Z,-9.10
2018-03-01T19:35:11.541Z,-9.10
2018-03-01T19:37:39.318Z,-9.10
2018-03-01T19:40:06.964Z,-9.10
2018-03-01T19:42:34.591Z,-9.10
2018-03-01T19:45:08.494Z,-9.10
2018-03-01T19:47:36.539Z,-9.10
2018-03-01T19:50:04.187Z,-9.20
2018-03-01T19:52:31.855Z,-9.20
2018-03-01T19:55:00.333Z,-9.30
2018-03-01T19:57:29.042Z,-9.30
2018-03-01T19:59:56.662Z,-9.30
2018-03-01T20:02:25.753Z,-9.40
2018-03-01T20:04:53.466Z,-9.30
2018-03-01T20:07:21.125Z,-9.40
2018-03-01T20:09:48.758Z,-9.40
2018-03-01T20:12:16.420Z,-9.40
2018-03-01T20:14:44.028Z,-9.40
2018-03-01T20:17:12.437Z,-9.50
2018-03-01T20:19:40.784Z,-9.50
2018-03-01T20:22:09.194Z,-9.60
2018-03-01T20:24:37.903Z,-9.60
2018-03-01T20:27:05.543Z,-9.60
2018-03-01T20:29:34.857Z,-9.60
2018-03-01T20:32:03.334Z,-9.60
2018-03-01T20:34:31.733Z,-9.70
2018-03-01T20:36:59.388Z,-9.70
2018-03-01T20:39:27.126Z,-9.70
2018-03-01T20:41:55.703Z,-9.70
2018-03-01T20:44:23.358Z,-9.70
2018-03-01T20:46:51.005Z,-9.70
2018-03-01T20:49:19.596Z,-9.80
2018-03-01T20:51:47.243Z,-9.80
2018-03-01T20:54:15.047Z,-9.80
2018-03-01T20:56:42.674Z,-9.90
2018-03-01T20:59:10.281Z,-9.90
2018-03-01T21:01:38.153Z,-10.00
2018-03-01T21:04:05.984Z,-9.90
2018-03-01T21:06:33.982Z,-9.90
2018-03-01T21:09:01.593Z,-9.90
2018-03-01T21:11:29.251Z,-10.00
2018-03-01T21:13:56.877Z,-10.00
2018-03-01T21:16:25.356Z,-10.10
2018-03-01T21:18:52.965Z,-10.10
2018-03-01T21:21:20.618Z,-10.10
2018-03-01T21:23:48.686Z,-10.20
2018-03-01T21:26:16.672Z,-10.20
2018-03-01T21:28:44.326Z,-10.20
2018-03-01T21:31:12.014Z,-10.20
2018-03-01T21:33:39.675Z,-10.30
2018-03-01T21:36:07.304Z,-10.30
2018-03-01T21:38:34.926Z,-10.30
2018-03-01T21:41:03.385Z,-10.30
2018-03-01T21:43:31.045Z,-10.40
2018-03-01T21:45:58.682Z,-10.40
2018-03-01T21:48:27.086Z,-10.40
2018-03-01T21:50:54.732Z,-10.40
2018-03-01T21:53:22.404Z,-10.30
2018-03-01T21:55:50.391Z,-10.40
2018-03-01T21:58:18.015Z,-10.40
2018-03-01T22:00:46.743Z,-10.50
2018-03-01T22:03:14.399Z,-10.40
2018-03-01T22:05:42.821Z,-10.50
2018-03-01T22:08:10.492Z,-10.50
2018-03-01T22:10:38.112Z,-10.50
2018-03-01T22:13:06.494Z,-10.60
2018-03-01T22:15:34.120Z,-10.60
2018-03-01T22:18:01.764Z,-10.60
2018-03-01T22:20:29.413Z,-10.60
2018-03-01T22:22:57.946Z,-10.70
2018-03-01T22:25:25.541Z,-10.60
2018-03-01T22:27:53.943Z,-10.70
2018-03-01T22:30:21.593Z,-10.70
2018-03-01T22:32:49.977Z,-10.80
2018-03-01T22:35:18.808Z,-10.80
2018-03-01T22:37:46.424Z,-10.80
2018-03-01T22:40:14.075Z,-10.80
2018-03-01T22:42:42.501Z,-10.80
2018-03-01T22:45:10.592Z,-10.90
2018-03-01T22:47:38.207Z,-10.90
2018-03-01T22:50:05.868Z,-10.90
2018-03-01T22:52:33.714Z,-10.90
2018-03-01T22:55:01.366Z,-10.90
2018-03-01T22:57:29.596Z,-10.90
2018-03-01T22:59:57.269Z,-10.90
2018-03-01T23:02:26.625Z,-11.00
2018-03-01T23:04:54.808Z,-11.00
2018-03-01T23:07:22.543Z,-11.00
2018-03-01T23:09:50.172Z,-11.00
2018-03-01T23:12:17.812Z,-11.00
2018-03-01T23:14:45.752Z,-11.10
2018-03-01T23:17:13.417Z,-11.10
2018-03-01T23:19:41.083Z,-11.10
2018-03-01T23:22:08.951Z,-11.10
2018-03-01T23:24:37.553Z,-11.20
2018-03-01T23:27:05.176Z,-11.20
2018-03-01T23:29:32.831Z,-11.10
2018-03-01T23:32:00.975Z,-11.20
2018-03-01T23:34:28.586Z,-11.20
2018-03-01T23:36:56.179Z,-11.20
2018-03-01T23:39:23.830Z,-11.20
2018-03-01T23:41:51.446Z,-11.20
2018-03-01T23:44:19.104Z,-11.30
2018-03-01T23:46:46.735Z,-11.30
2018-03-01T23:49:15.157Z,-11.30
2018-03-01T23:51:42.831Z,-11.30
2018-03-01T23:54:10.464Z,-11.30
2018-03-01T23:56:39.362Z,-11.40
2018-03-01T23:59:07.047Z,-11.40
